Time;durP1;ratioP1;P1;durP2;ratioP2;P2;SDS_P1;SDS_P2;PMS_P1;PMS_P2;Temp;Humidity;BMP_temperature;BMP_pressure;BME280_temperature;BME280_humidity;BME280_pressure;Samples;Min_cycle;Max_cycle;Signal;HPM_P1;HPM_P2
2021/04/08 00:01:27;;;;;;;;;;;;;;;6.64;55.16;100935.59;5014740;28;98194;-79
2021/04/08 00:03:53;;;;;;;;;;;;;;;6.67;54.76;100928.53;5017009;28;101256;-79
2021/04/08 00:06:20;;;;;;;;;;;;;;;6.80;54.42;100930.06;5018254;28;96835;-79
2021/04/08 00:08:46;;;;;;;;;;;;;;;7.08;53.45;100943.59;5015224;28;97130;-79
2021/04/08 00:11:12;;;;;;;;;;;;;;;7.10;53.58;100933.03;5010652;28;96980;-81
2021/04/08 00:13:38;;;;;;;;;;;;;;;6.53;54.70;100943.66;5014207;28;99192;-80
2021/04/08 00:16:04;;;;;;;;;;;;;;;7.20;53.27;100943.34;5024714;28;96811;-80
2021/04/08 00:18:30;;;;;;;;;;;;;;;7.15;53.77;100949.59;5026646;28;97317;-80
2021/04/08 00:20:56;;;;;;;;;;;;;;;6.94;53.74;100947.34;5013482;28;99470;-80
2021/04/08 00:23:23;;;;;;;;;;;;;;;7.11;53.25;100956.66;5023302;28;101844;-81
2021/04/08 00:25:49;;;;;;;;;;;;;;;7.00;53.52;100957.75;5010887;28;96813;-81
2021/04/08 00:28:15;;;;;;;;;;;;;;;7.05;53.20;100958.53;5014378;28;97047;-81
2021/04/08 00:30:43;;;;;;;;;;;;;;;6.92;53.43;100959.63;5019463;28;99033;-81
2021/04/08 00:33:10;;;;;;;;;;;;;;;6.63;53.84;100968.00;5021385;28;96888;-81
2021/04/08 00:35:36;;;;;;;;;;;;;;;6.88;53.45;100968.47;5013142;28;98530;-81
2021/04/08 00:38:02;;;;;;;;;;;;;;;7.04;53.42;100981.31;5009917;28;97652;-81
2021/04/08 00:40:29;;;;;;;;;;;;;;;6.73;53.66;100975.69;5012262;28;100284;-81
2021/04/08 00:42:54;;;;;;;;;;;;;;;6.14;54.81;100996.72;5002921;28;100049;-81
2021/04/08 00:45:20;;;;;;;;;;;;;;;6.64;53.58;101001.22;5015456;28;97053;-81
2021/04/08 00:47:46;;;;;;;;;;;;;;;6.82;53.55;100993.09;5012325;28;98114;-79
2021/04/08 00:50:13;;;;;;;;;;;;;;;6.50;53.31;100992.72;5018974;28;100194;-80
2021/04/08 00:52:41;;;;;;;;;;;;;;;6.27;54.16;100993.91;5022033;28;100465;-80
2021/04/08 00:55:08;;;;;;;;;;;;;;;6.02;55.31;101002.13;5016276;28;96873;-80
2021/04/08 00:57:38;;;;;;;;;;;;;;;6.21;55.62;101012.38;5013949;28;97097;-80
2021/04/08 01:00:06;;;;;;;;;;;;;;;6.65;53.66;101013.47;5015780;28;99006;-80
2021/04/08 01:02:32;;;;;;;;;;;;;;;6.95;52.89;101014.75;5024625;28;99641;-80
2021/04/08 01:04:59;;;;;;;;;;;;;;;7.08;52.42;101018.94;5014872;28;96735;-81
2021/04/08 01:07:25;;;;;;;;;;;;;;;7.19;51.95;101014.34;5013346;28;96955;-80
2021/04/08 01:09:51;;;;;;;;;;;;;;;7.17;51.70;101017.00;5014059;28;98121;-80
2021/04/08 01:12:17;;;;;;;;;;;;;;;7.08;52.30;101001.41;5013621;28;97442;-80
2021/04/08 01:14:44;;;;;;;;;;;;;;;7.28;51.41;101010.69;5014060;28;96667;-80
2021/04/08 01:17:14;;;;;;;;;;;;;;;6.99;52.13;101016.44;5025570;28;98268;-80
2021/04/08 01:19:58;;;;;;;;;;;;;;;7.36;51.63;101022.78;5022112;28;98180;-79
2021/04/08 01:22:32;;;;;;;;;;;;;;;7.15;52.19;101018.75;5016756;28;99158;-80
2021/04/08 01:25:05;;;;;;;;;;;;;;;6.78;53.57;101025.53;5019215;28;96800;-80
2021/04/08 01:27:36;;;;;;;;;;;;;;;6.61;53.45;101028.41;5015310;28;98437;-80
2021/04/08 01:30:15;;;;;;;;;;;;;;;7.12;52.99;101028.47;5019195;28;100658;-80
2021/04/08 01:32:44;;;;;;;;;;;;;;;7.19;52.21;101022.22;5020812;28;96708;-80
2021/04/08 01:35:11;;;;;;;;;;;;;;;7.24;52.45;101022.13;5014970;28;97160;-80
2021/04/08 01:37:40;;;;;;;;;;;;;;;7.43;51.93;101032.28;5014506;28;96699;-81
2021/04/08 01:40:07;;;;;;;;;;;;;;;6.88;53.04;101028.88;5015030;28;99038;-80
2021/04/08 01:42:33;;;;;;;;;;;;;;;6.91;53.92;101042.81;4999929;28;97189;-80
2021/04/08 01:45:00;;;;;;;;;;;;;;;7.05;54.69;101037.34;5026701;28;97076;-81
2021/04/08 01:47:28;;;;;;;;;;;;;;;6.84;54.14;101046.44;5026439;28;96913;-80
2021/04/08 01:49:55;;;;;;;;;;;;;;;7.03;53.98;101040.00;5024092;28;97702;-80
2021/04/08 01:52:22;;;;;;;;;;;;;;;7.18;53.25;101033.63;5029605;28;97880;-80
2021/04/08 01:55:01;;;;;;;;;;;;;;;7.16;53.39;101043.28;5012924;28;96751;-81
2021/04/08 01:57:27;;;;;;;;;;;;;;;6.95;54.33;101041.03;5016979;28;96816;-81
2021/04/08 01:59:53;;;;;;;;;;;;;;;7.15;53.52;101036.31;5016209;28;99956;-81
2021/04/08 02:02:19;;;;;;;;;;;;;;;7.38;52.64;101041.16;5019480;28;99610;-81
2021/04/08 02:04:45;;;;;;;;;;;;;;;7.18;53.25;101038.88;5014058;28;96756;-81
2021/04/08 02:07:13;;;;;;;;;;;;;;;7.34;52.56;101042.13;5020714;28;96817;-80
2021/04/08 02:09:41;;;;;;;;;;;;;;;7.31;52.83;101040.41;5014875;28;99151;-81
2021/04/08 02:12:08;;;;;;;;;;;;;;;6.84;53.38;101049.06;5019940;28;99287;-80
2021/04/08 02:14:35;;;;;;;;;;;;;;;6.97;53.42;101045.34;5013648;28;96908;-79
2021/04/08 02:17:02;;;;;;;;;;;;;;;6.76;53.64;101051.81;5011864;28;97006;-80
2021/04/08 02:19:29;;;;;;;;;;;;;;;6.87;53.29;101058.66;5011039;28;99826;-79
2021/04/08 02:21:55;;;;;;;;;;;;;;;7.13;53.33;101062.63;5026365;27;99248;-80
2021/04/08 02:24:22;;;;;;;;;;;;;;;7.27;53.12;101064.16;5013295;28;96614;-80
2021/04/08 02:26:49;;;;;;;;;;;;;;;7.03;53.18;101066.28;5018428;28;98423;-80
2021/04/08 02:29:17;;;;;;;;;;;;;;;7.20;52.96;101064.25;5012682;28;101931;-81
2021/04/08 02:31:43;;;;;;;;;;;;;;;6.41;54.52;101056.72;5021165;28;98815;-80
2021/04/08 02:34:10;;;;;;;;;;;;;;;6.73;53.78;101070.25;5015199;28;96640;-80
2021/04/08 02:36:37;;;;;;;;;;;;;;;6.49;54.19;101067.09;5016105;28;97745;-80
2021/04/08 02:39:04;;;;;;;;;;;;;;;6.65;54.16;101080.00;5017696;28;101157;-80
2021/04/08 02:41:31;;;;;;;;;;;;;;;6.91;53.07;101079.59;5019583;28;99244;-80
2021/04/08 02:43:57;;;;;;;;;;;;;;;6.57;53.85;101087.09;5012174;28;97047;-79
2021/04/08 02:46:22;;;;;;;;;;;;;;;6.95;53.28;101090.94;5023417;28;96967;-81
2021/04/08 02:48:48;;;;;;;;;;;;;;;7.31;52.33;101087.72;5024549;27;100120;-81
2021/04/08 02:51:18;;;;;;;;;;;;;;;6.98;52.87;101098.78;5025580;28;99124;-81
2021/04/08 02:53:47;;;;;;;;;;;;;;;6.71;53.09;101090.41;5008958;28;96684;-81
2021/04/08 02:56:15;;;;;;;;;;;;;;;6.72;53.08;101100.03;5018529;28;96829;-81
2021/04/08 02:58:42;;;;;;;;;;;;;;;6.40;54.01;101094.34;5019433;28;102196;-80
2021/04/08 03:01:10;;;;;;;;;;;;;;;6.98;52.91;101114.53;5025577;28;101239;-81
2021/04/08 03:03:39;;;;;;;;;;;;;;;7.03;52.79;101121.44;5020841;28;96736;-81
2021/04/08 03:06:06;;;;;;;;;;;;;;;6.64;53.70;101117.63;5029809;28;97026;-81
2021/04/08 03:08:33;;;;;;;;;;;;;;;7.09;52.89;101123.13;5020688;28;98216;-81
2021/04/08 03:11:01;;;;;;;;;;;;;;;7.22;52.19;101126.44;5028962;28;98109;-81
2021/04/08 03:13:28;;;;;;;;;;;;;;;7.28;52.13;101114.09;5027877;28;97175;-82
2021/04/08 03:15:55;;;;;;;;;;;;;;;7.37;51.84;101119.16;5026508;28;96831;-81
2021/04/08 03:18:21;;;;;;;;;;;;;;;7.11;52.24;101122.22;5021019;28;96802;-80
2021/04/08 03:20:48;;;;;;;;;;;;;;;6.85;53.39;101126.13;5016558;28;98810;-82
2021/04/08 03:23:14;;;;;;;;;;;;;;;6.95;52.85;101123.34;5018323;28;98415;-80
2021/04/08 03:25:40;;;;;;;;;;;;;;;7.27;52.01;101135.13;5022244;28;97491;-81
2021/04/08 03:28:07;;;;;;;;;;;;;;;6.65;53.47;101134.25;5024874;28;98164;-81
2021/04/08 03:30:33;;;;;;;;;;;;;;;7.11;52.26;101142.38;5018386;27;97870;-80
2021/04/08 03:33:00;;;;;;;;;;;;;;;6.73;53.27;101140.28;5018762;28;96810;-80
2021/04/08 03:35:27;;;;;;;;;;;;;;;7.24;51.87;101154.44;5015572;28;98560;-80
2021/04/08 03:37:54;;;;;;;;;;;;;;;6.76;52.93;101146.34;5018335;28;97757;-80
2021/04/08 03:40:20;;;;;;;;;;;;;;;7.16;52.62;101145.78;5020944;28;99117;-80
2021/04/08 03:42:49;;;;;;;;;;;;;;;6.61;54.24;101157.09;5024469;28;96806;-79
2021/04/08 03:45:15;;;;;;;;;;;;;;;6.62;54.78;101157.97;5032167;28;97729;-81
2021/04/08 03:47:41;;;;;;;;;;;;;;;6.38;56.36;101159.09;5026878;28;98056;-79
2021/04/08 03:50:09;;;;;;;;;;;;;;;6.67;55.68;101157.00;5016569;28;100209;-81
2021/04/08 03:52:36;;;;;;;;;;;;;;;6.38;56.66;101164.34;5015487;28;97301;-80
2021/04/08 03:55:03;;;;;;;;;;;;;;;5.97;58.33;101163.03;5013910;28;96871;-80
2021/04/08 03:57:30;;;;;;;;;;;;;;;6.37;57.77;101167.88;5020321;28;98901;-80
2021/04/08 03:59:57;;;;;;;;;;;;;;;6.13;57.78;101168.16;5020436;27;97585;-81
2021/04/08 04:02:25;;;;;;;;;;;;;;;5.91;59.07;101178.84;5023149;28;96891;-81
2021/04/08 04:04:51;;;;;;;;;;;;;;;6.19;57.95;101174.19;5014247;28;96918;-81
2021/04/08 04:07:19;;;;;;;;;;;;;;;5.59;58.41;101170.38;5022245;28;98906;-80
2021/04/08 04:09:45;;;;;;;;;;;;;;;5.95;57.06;101179.69;5013648;28;99363;-80
2021/04/08 04:12:14;;;;;;;;;;;;;;;6.42;56.66;101171.31;5017247;28;96727;-80
2021/04/08 04:14:41;;;;;;;;;;;;;;;6.72;56.57;101181.44;5015833;28;96834;-80
2021/04/08 04:17:16;;;;;;;;;;;;;;;6.12;56.86;101179.53;5015263;28;99340;-81
2021/04/08 04:19:41;;;;;;;;;;;;;;;6.06;57.13;101182.22;5011227;28;97764;-80
2021/04/08 04:22:07;;;;;;;;;;;;;;;6.43;56.55;101180.94;5015022;28;96863;-80
2021/04/08 04:24:34;;;;;;;;;;;;;;;6.48;55.53;101180.88;5024554;28;96971;-79
2021/04/08 04:27:00;;;;;;;;;;;;;;;6.65;55.59;101179.78;5021540;28;97906;-80
2021/04/08 04:29:26;;;;;;;;;;;;;;;6.16;56.42;101183.88;5021432;28;99267;-80
2021/04/08 04:31:52;;;;;;;;;;;;;;;5.96;56.90;101187.56;5023714;28;98580;-80
2021/04/08 04:34:17;;;;;;;;;;;;;;;6.23;56.05;101193.41;5013628;28;96816;-80
2021/04/08 04:36:43;;;;;;;;;;;;;;;6.22;55.78;101181.19;5029681;28;98344;-79
2021/04/08 04:39:09;;;;;;;;;;;;;;;6.47;55.40;101189.63;5014567;28;99431;-80
2021/04/08 04:41:36;;;;;;;;;;;;;;;6.51;55.04;101205.31;5020613;28;98566;-78
2021/04/08 04:44:02;;;;;;;;;;;;;;;6.46;54.60;101201.03;5027241;28;96774;-81
2021/04/08 04:46:29;;;;;;;;;;;;;;;7.02;53.98;101209.03;5015396;28;98310;-80
2021/04/08 04:48:55;;;;;;;;;;;;;;;6.67;53.97;101208.66;5018733;28;99160;-80
2021/04/08 04:51:21;;;;;;;;;;;;;;;6.53;54.79;101221.06;5019681;28;96916;-80
2021/04/08 04:53:46;;;;;;;;;;;;;;;6.72;54.12;101212.97;5024493;28;96904;-81
2021/04/08 04:56:12;;;;;;;;;;;;;;;6.59;54.25;101221.00;5020353;28;99099;-79
2021/04/08 04:58:39;;;;;;;;;;;;;;;6.50;54.79;101223.75;5016604;28;98562;-80
2021/04/08 05:01:05;;;;;;;;;;;;;;;6.57;53.90;101230.63;5015321;28;96868;-81
2021/04/08 05:03:31;;;;;;;;;;;;;;;7.15;52.97;101233.44;5023952;28;96887;-82
2021/04/08 05:05:56;;;;;;;;;;;;;;;7.18;52.64;101233.38;5019773;28;99206;-81
2021/04/08 05:08:22;;;;;;;;;;;;;;;6.72;53.52;101249.72;5021398;28;97035;-81
2021/04/08 05:10:48;;;;;;;;;;;;;;;6.98;52.81;101240.66;5015705;28;97304;-81
2021/04/08 05:13:14;;;;;;;;;;;;;;;6.96;53.41;101240.66;5008300;28;97569;-82
2021/04/08 05:15:41;;;;;;;;;;;;;;;6.26;54.37;101243.22;5015327;28;99155;-81
2021/04/08 05:18:07;;;;;;;;;;;;;;;6.15;54.37;101247.72;5018860;28;97954;-81
2021/04/08 05:20:33;;;;;;;;;;;;;;;6.87;53.09;101253.06;5013195;28;98760;-82
2021/04/08 05:22:59;;;;;;;;;;;;;;;6.82;52.21;101261.00;5011553;28;97250;-82
2021/04/08 05:25:24;;;;;;;;;;;;;;;6.29;54.03;101258.97;5018368;28;98709;-80
2021/04/08 05:27:50;;;;;;;;;;;;;;;6.24;54.37;101271.22;5018190;28;99203;-81
2021/04/08 05:30:17;;;;;;;;;;;;;;;6.80;52.69;101268.03;5017393;28;97659;-80
2021/04/08 05:32:44;;;;;;;;;;;;;;;6.56;52.67;101271.81;5014614;28;98635;-81
2021/04/08 05:35:10;;;;;;;;;;;;;;;6.64;52.92;101276.94;5020610;28;96820;-80
2021/04/08 05:37:36;;;;;;;;;;;;;;;6.70;53.12;101279.50;5029195;28;98153;-81
2021/04/08 05:40:03;;;;;;;;;;;;;;;6.94;52.16;101283.63;5027719;28;96685;-81
2021/04/08 05:42:29;;;;;;;;;;;;;;;7.33;51.44;101291.00;5016599;28;96809;-80
2021/04/08 05:44:55;;;;;;;;;;;;;;;6.33;52.86;101292.16;5024320;28;99457;-80
2021/04/08 05:47:20;;;;;;;;;;;;;;;6.60;52.81;101306.78;5022290;28;99843;-80
2021/04/08 05:49:47;;;;;;;;;;;;;;;6.62;53.43;101302.38;5014622;28;98451;-80
2021/04/08 05:52:13;;;;;;;;;;;;;;;7.12;52.09;101312.31;5021295;28;98885;-82
2021/04/08 05:54:39;;;;;;;;;;;;;;;6.87;51.98;101318.75;5018076;28;99089;-81
2021/04/08 05:57:06;;;;;;;;;;;;;;;6.53;52.86;101328.72;5011017;28;99349;-81
2021/04/08 05:59:32;;;;;;;;;;;;;;;7.02;52.01;101334.34;5011366;28;97682;-82
2021/04/08 06:01:58;;;;;;;;;;;;;;;6.47;52.98;101331.41;5005490;28;98869;-80
2021/04/08 06:04:24;;;;;;;;;;;;;;;6.73;52.62;101334.66;5013649;28;97198;-82
2021/04/08 06:06:51;;;;;;;;;;;;;;;6.47;53.16;101334.91;5001917;28;99443;-81
2021/04/08 06:09:17;;;;;;;;;;;;;;;6.40;53.37;101341.09;5013807;28;96881;-81
2021/04/08 06:11:43;;;;;;;;;;;;;;;6.57;52.60;101341.78;5006748;28;96830;-82
2021/04/08 06:14:09;;;;;;;;;;;;;;;6.76;52.60;101361.72;5005448;28;99172;-81
2021/04/08 06:16:35;;;;;;;;;;;;;;;6.95;51.85;101357.19;5010680;28;97759;-81
2021/04/08 06:19:00;;;;;;;;;;;;;;;7.09;51.12;101359.63;5023399;28;98562;-82
2021/04/08 06:21:26;;;;;;;;;;;;;;;7.11;51.65;101356.09;5015638;28;98490;-82
2021/04/08 06:23:53;;;;;;;;;;;;;;;6.89;51.54;101362.50;5024182;27;100836;-82
2021/04/08 06:26:20;;;;;;;;;;;;;;;7.07;50.83;101367.56;5023815;28;98183;-84
2021/04/08 06:28:46;;;;;;;;;;;;;;;7.27;50.78;101367.31;5017676;28;97534;-81
2021/04/08 06:31:11;;;;;;;;;;;;;;;7.33;50.72;101364.63;5020047;28;96850;-81
2021/04/08 06:33:37;;;;;;;;;;;;;;;7.43;50.07;101368.84;5015785;28;97923;-81
2021/04/08 06:36:04;;;;;;;;;;;;;;;7.73;50.21;101375.47;5018844;28;98896;-83
2021/04/08 06:38:30;;;;;;;;;;;;;;;7.06;50.89;101376.31;5018778;28;97529;-83
2021/04/08 06:40:57;;;;;;;;;;;;;;;7.44;50.41;101393.38;5018293;28;97096;-83
2021/04/08 06:43:25;;;;;;;;;;;;;;;7.53;50.24;101396.78;5017013;28;100384;-81
2021/04/08 06:45:53;;;;;;;;;;;;;;;7.18;50.72;101401.59;5021540;28;101521;-82
2021/04/08 06:48:20;;;;;;;;;;;;;;;7.44;50.65;101406.53;5018956;28;98070;-84
2021/04/08 06:50:48;;;;;;;;;;;;;;;7.19;50.51;101403.34;5012065;28;96847;-82
2021/04/08 06:53:14;;;;;;;;;;;;;;;6.71;52.46;101409.94;5012990;28;99531;-82
2021/04/08 06:55:41;;;;;;;;;;;;;;;6.98;51.57;101424.56;5016037;28;98797;-80
2021/04/08 06:58:09;;;;;;;;;;;;;;;7.18;51.11;101425.25;5006586;28;97658;-81
2021/04/08 07:00:35;;;;;;;;;;;;;;;7.46;50.46;101418.78;5011019;28;97683;-82
2021/04/08 07:03:03;;;;;;;;;;;;;;;7.72;49.77;101426.34;5017140;28;99587;-81
2021/04/08 07:05:29;;;;;;;;;;;;;;;8.09;49.34;101425.84;5015969;28;99473;-83
2021/04/08 07:07:55;;;;;;;;;;;;;;;7.70;50.16;101427.25;5010695;28;97629;-82
2021/04/08 07:10:21;;;;;;;;;;;;;;;7.90;49.27;101426.09;5023794;28;97815;-82
2021/04/08 07:12:47;;;;;;;;;;;;;;;7.43;49.55;101429.34;5032445;28;99516;-80
2021/04/08 07:15:14;;;;;;;;;;;;;;;7.80;49.44;101436.78;5031108;28;96801;-81
2021/04/08 07:17:41;;;;;;;;;;;;;;;7.75;49.58;101459.63;5023939;28;97432;-81
2021/04/08 07:20:07;;;;;;;;;;;;;;;8.63;47.44;101456.63;5020958;28;97276;-81
2021/04/08 07:22:33;;;;;;;;;;;;;;;8.32;48.36;101456.25;5016671;28;97899;-80
2021/04/08 07:24:59;;;;;;;;;;;;;;;8.43;48.59;101463.97;5022705;28;99002;-82
2021/04/08 07:27:26;;;;;;;;;;;;;;;8.40;47.29;101462.25;5033341;28;96760;-83
2021/04/08 07:29:54;;;;;;;;;;;;;;;8.57;47.32;101474.31;5031452;28;98589;-83
2021/04/08 07:32:22;;;;;;;;;;;;;;;8.75;47.30;101474.88;5030865;28;99720;-82
2021/04/08 07:34:49;;;;;;;;;;;;;;;8.96;47.07;101470.13;5029168;28;101630;-80
2021/04/08 07:37:20;;;;;;;;;;;;;;;8.90;46.07;101468.47;5029944;28;97009;-81
2021/04/08 07:39:49;;;;;;;;;;;;;;;9.00;46.18;101479.72;5035492;28;96691;-82
2021/04/08 07:42:17;;;;;;;;;;;;;;;9.17;45.41;101481.19;5031984;28;101244;-83
2021/04/08 07:44:45;;;;;;;;;;;;;;;8.97;45.66;101488.56;5033755;28;100220;-81
2021/04/08 07:47:18;;;;;;;;;;;;;;;9.05;45.43;101486.69;5030746;28;96728;-81
2021/04/08 07:49:46;;;;;;;;;;;;;;;8.52;46.32;101478.78;5023917;28;97274;-82
2021/04/08 07:52:17;;;;;;;;;;;;;;;8.47;46.77;101504.31;5025693;28;100374;-81
2021/04/08 07:54:55;;;;;;;;;;;;;;;8.58;46.61;101494.50;5021593;28;98218;-83
2021/04/08 07:57:21;;;;;;;;;;;;;;;8.51;46.86;101519.19;5028924;28;97074;-83
2021/04/08 07:59:46;;;;;;;;;;;;;;;9.03;45.04;101522.72;5034952;28;96783;-82
2021/04/08 08:02:13;;;;;;;;;;;;;;;8.36;46.26;101515.88;5017181;28;100083;-82
2021/04/08 08:04:39;;;;;;;;;;;;;;;9.06;45.44;101525.28;5017285;28;101764;-82
2021/04/08 08:07:06;;;;;;;;;;;;;;;9.57;44.02;101523.53;5019356;28;97224;-82
2021/04/08 08:09:35;;;;;;;;;;;;;;;9.44;43.93;101523.78;5017862;28;97737;-83
2021/04/08 08:12:08;;;;;;;;;;;;;;;8.87;45.22;101537.03;5020431;28;101302;-82
2021/04/08 08:14:35;;;;;;;;;;;;;;;9.00;44.30;101535.94;5017547;28;98963;-83
2021/04/08 08:17:03;;;;;;;;;;;;;;;9.54;44.40;101538.53;5023600;28;97251;-80
2021/04/08 08:19:30;;;;;;;;;;;;;;;9.62;43.33;101546.28;5017543;28;98577;-82
2021/04/08 08:21:56;;;;;;;;;;;;;;;9.99;42.68;101548.19;5014938;28;100335;-81
2021/04/08 08:24:23;;;;;;;;;;;;;;;9.93;42.74;101547.44;5025773;28;97457;-82
2021/04/08 08:26:49;;;;;;;;;;;;;;;9.08;43.80;101560.44;5020020;28;97030;-81
2021/04/08 08:29:17;;;;;;;;;;;;;;;9.12;43.95;101561.25;5015413;28;97611;-82
2021/04/08 08:31:44;;;;;;;;;;;;;;;10.37;41.66;101560.59;5026367;28;100849;-80
2021/04/08 08:34:12;;;;;;;;;;;;;;;9.92;41.62;101567.69;5019795;28;101175;-83
2021/04/08 08:36:38;;;;;;;;;;;;;;;9.64;42.94;101571.78;5019987;28;96966;-84
2021/04/08 08:39:16;;;;;;;;;;;;;;;9.22;43.50;101583.06;5021818;28;96827;-85
2021/04/08 08:41:44;;;;;;;;;;;;;;;10.21;41.50;101574.19;5026966;28;100330;-83
2021/04/08 08:44:11;;;;;;;;;;;;;;;10.07;41.33;101586.75;5018292;28;99891;-84
2021/04/08 08:46:43;;;;;;;;;;;;;;;9.71;41.17;101589.22;5022716;28;96916;-84
2021/04/08 08:49:09;;;;;;;;;;;;;;;9.83;40.92;101583.72;5023156;28;98738;-82
2021/04/08 08:54:23;;;;;;;;;;;;;;;9.01;42.51;101579.88;5024451;28;98529;-83
2021/04/08 08:56:58;;;;;;;;;;;;;;;9.31;42.49;101590.84;5025966;28;96777;-84
2021/04/08 08:59:24;;;;;;;;;;;;;;;10.06;40.72;101595.59;5020855;28;97066;-83
2021/04/08 09:01:52;;;;;;;;;;;;;;;10.59;39.64;101592.72;5023459;28;101435;-83
2021/04/08 09:04:18;;;;;;;;;;;;;;;10.72;38.82;101599.47;5026001;27;98912;-84
2021/04/08 09:06:47;;;;;;;;;;;;;;;11.03;37.99;101598.75;5020956;28;96869;-84
2021/04/08 09:09:15;;;;;;;;;;;;;;;11.64;36.80;101590.16;5025450;28;96896;-84
2021/04/08 09:11:43;;;;;;;;;;;;;;;9.66;39.86;101617.44;5031403;28;99018;-85
2021/04/08 09:14:11;;;;;;;;;;;;;;;9.53;39.41;101616.81;5034741;28;100085;-87
2021/04/08 09:16:43;;;;;;;;;;;;;;;10.94;36.69;101620.13;5029635;28;96018;-85
2021/04/08 09:19:38;;;;;;;;;;;;;;;11.41;35.70;101605.78;5033762;28;96752;-86
2021/04/08 09:22:06;;;;;;;;;;;;;;;11.61;35.72;101615.84;5028436;28;101747;-86
2021/04/08 09:24:34;;;;;;;;;;;;;;;11.62;36.51;101614.94;5037121;28;98281;-85
2021/04/08 09:27:00;;;;;;;;;;;;;;;11.95;34.78;101622.00;5038909;28;97168;-85
2021/04/08 09:29:48;;;;;;;;;;;;;;;11.31;35.40;101620.13;5022647;28;98057;-86
2021/04/08 09:32:27;;;;;;;;;;;;;;;11.04;36.06;101626.94;5026867;28;100999;-86
2021/04/08 09:35:12;;;;;;;;;;;;;;;11.43;34.95;101620.69;5028250;28;97090;-88
2021/04/08 09:37:57;;;;;;;;;;;;;;;10.30;36.64;101621.56;5030967;28;96836;-82
2021/04/08 09:40:55;;;;;;;;;;;;;;;9.52;38.02;101616.81;5030793;28;97027;-83
2021/04/08 09:43:24;;;;;;;;;;;;;;;10.32;36.58;101620.59;4967148;28;98884;-86
2021/04/08 09:48:52;;;;;;;;;;;;;;;11.51;34.09;101620.50;5025282;28;98545;-84
2021/04/08 09:51:44;;;;;;;;;;;;;;;12.54;32.72;101632.69;5035076;27;96732;-86
2021/04/08 09:54:14;;;;;;;;;;;;;;;11.82;33.58;101644.41;5013985;28;100571;-86
2021/04/08 10:00:10;;;;;;;;;;;;;;;11.35;35.26;101649.13;5019177;28;96960;-88
2021/04/08 10:02:36;;;;;;;;;;;;;;;10.76;35.57;101647.88;5020944;28;97197;-86
2021/04/08 10:05:08;;;;;;;;;;;;;;;9.98;36.82;101641.47;5024652;28;97622;-84
2021/04/08 10:08:03;;;;;;;;;;;;;;;10.82;35.92;101644.22;5020868;28;98173;-85
2021/04/08 10:10:44;;;;;;;;;;;;;;;10.91;35.59;101644.00;5013237;28;97123;-83
2021/04/08 10:13:34;;;;;;;;;;;;;;;11.28;35.02;101641.38;5017281;28;97017;-83
2021/04/08 10:16:01;;;;;;;;;;;;;;;11.57;34.30;101650.31;5003155;28;98213;-83
2021/04/08 10:18:28;;;;;;;;;;;;;;;11.48;34.27;101652.34;5019220;28;100183;-83
2021/04/08 10:20:58;;;;;;;;;;;;;;;11.26;33.63;101651.13;5028372;28;97352;-84
2021/04/08 10:23:55;;;;;;;;;;;;;;;12.03;32.63;101643.84;5034622;28;96416;-84
2021/04/08 10:26:23;;;;;;;;;;;;;;;11.47;33.28;101653.25;5026760;28;99207;-83
2021/04/08 10:28:51;;;;;;;;;;;;;;;11.85;33.50;101647.88;5024213;28;97770;-83
2021/04/08 10:31:20;;;;;;;;;;;;;;;11.92;33.15;101651.22;5022297;28;96754;-83
2021/04/08 10:33:47;;;;;;;;;;;;;;;12.11;33.37;101641.88;5015364;28;97345;-82
2021/04/08 10:36:27;;;;;;;;;;;;;;;11.42;33.87;101645.41;5016337;28;101179;-84
2021/04/08 10:39:05;;;;;;;;;;;;;;;10.80;34.94;101649.53;5017803;28;99138;-82
2021/04/08 10:41:31;;;;;;;;;;;;;;;11.84;33.68;101653.19;5017038;28;98614;-81
2021/04/08 10:44:18;;;;;;;;;;;;;;;12.05;32.93;101650.00;5019529;28;97369;-85
2021/04/08 10:46:44;;;;;;;;;;;;;;;12.55;31.26;101637.94;5016514;28;99553;-86
2021/04/08 10:49:11;;;;;;;;;;;;;;;13.13;29.79;101647.66;5025859;28;99628;-86
2021/04/08 10:51:40;;;;;;;;;;;;;;;12.79;30.08;101649.63;5152574;22;99623;-84
2021/04/08 10:54:44;;;;;;;;;;;;;;;11.48;32.12;101655.00;5062863;27;97372;-85
2021/04/08 10:57:12;;;;;;;;;;;;;;;11.77;32.23;101663.09;5063358;27;99604;-90
2021/04/08 11:04:50;;;;;;;;;;;;;;;12.83;30.39;101659.22;5235608;22;99052;-84
2021/04/08 11:10:26;;;;;;;;;;;;;;;12.32;30.48;101651.88;5030260;28;98267;-86
2021/04/08 11:12:54;;;;;;;;;;;;;;;11.87;31.74;101664.59;5033712;28;96726;-89
2021/04/08 11:15:46;;;;;;;;;;;;;;;11.89;32.32;101672.47;5031956;28;97398;-89
2021/04/08 11:18:27;;;;;;;;;;;;;;;11.54;32.06;101676.88;5030867;28;100083;-90
2021/04/08 11:21:01;;;;;;;;;;;;;;;12.24;31.52;101675.06;5033023;28;98017;-88
2021/04/08 11:23:29;;;;;;;;;;;;;;;12.47;31.26;101686.81;5029527;28;96961;-89
2021/04/08 11:29:31;;;;;;;;;;;;;;;12.32;31.78;101682.81;5181044;22;99347;-89
2021/04/08 11:32:07;;;;;;;;;;;;;;;12.23;30.87;101681.28;5028021;28;97828;-87
2021/04/08 11:34:46;;;;;;;;;;;;;;;11.24;31.98;101692.59;5029353;28;96797;-86
2021/04/08 11:37:16;;;;;;;;;;;;;;;12.53;30.36;101687.50;5024634;28;96856;-85
2021/04/08 11:39:58;;;;;;;;;;;;;;;13.10;30.27;101682.25;5027292;28;100672;-83
2021/04/08 11:42:24;;;;;;;;;;;;;;;12.28;30.72;101694.38;5022202;28;101154;-86
2021/04/08 11:44:57;;;;;;;;;;;;;;;12.16;31.60;101711.50;5015416;28;97486;-85
2021/04/08 11:47:26;;;;;;;;;;;;;;;12.08;32.04;101705.53;5016283;28;97219;-87
2021/04/08 11:49:53;;;;;;;;;;;;;;;11.93;32.33;101706.81;5018271;28;100739;-87
2021/04/08 11:52:20;;;;;;;;;;;;;;;12.22;32.51;101713.97;5019595;28;101495;-87
2021/04/08 11:55:05;;;;;;;;;;;;;;;12.18;31.88;101711.47;5018652;28;97842;-86
2021/04/08 11:57:33;;;;;;;;;;;;;;;12.36;31.37;101706.53;5018993;28;97484;-84
2021/04/08 12:00:07;;;;;;;;;;;;;;;12.65;30.23;101699.53;5015396;28;101642;-85
2021/04/08 12:02:35;;;;;;;;;;;;;;;12.22;30.72;101700.72;5015731;28;99060;-85
2021/04/08 12:05:02;;;;;;;;;;;;;;;11.97;31.09;101712.88;5022622;28;97141;-86
2021/04/08 12:07:29;;;;;;;;;;;;;;;12.18;30.98;101708.81;5023779;28;96925;-86
2021/04/08 12:10:11;;;;;;;;;;;;;;;12.60;30.33;101704.94;5009824;28;99298;-90
2021/04/08 12:18:16;;;;;;;;;;;;;;;13.60;27.95;101711.63;5044518;27;96721;-84
2021/04/08 12:20:42;;;;;;;;;;;;;;;13.32;27.82;101716.97;5030377;28;97154;-85
2021/04/08 12:23:10;;;;;;;;;;;;;;;13.79;27.68;101723.38;5032480;28;100219;-85
2021/04/08 12:25:46;;;;;;;;;;;;;;;13.95;27.80;101721.97;5032148;28;96869;-85
2021/04/08 12:28:13;;;;;;;;;;;;;;;13.59;27.61;101722.34;5024371;28;97190;-82
2021/04/08 12:30:47;;;;;;;;;;;;;;;13.14;28.16;101721.06;5024037;28;97778;-83
2021/04/08 12:33:17;;;;;;;;;;;;;;;12.52;29.48;101729.97;5022329;28;99798;-84
2021/04/08 12:35:43;;;;;;;;;;;;;;;12.00;30.60;101728.72;5025307;28;97485;-83
2021/04/08 12:38:12;;;;;;;;;;;;;;;11.78;31.27;101727.50;5025292;28;98605;-84
2021/04/08 12:40:38;;;;;;;;;;;;;;;11.44;31.89;101730.94;5031536;28;97809;-83
2021/04/08 12:43:05;;;;;;;;;;;;;;;11.63;31.49;101741.94;5023497;28;101071;-83
2021/04/08 12:45:32;;;;;;;;;;;;;;;11.91;29.62;101731.59;5022261;28;97485;-84
2021/04/08 12:47:59;;;;;;;;;;;;;;;11.97;28.76;101748.19;5018948;28;98520;-82
2021/04/08 12:50:25;;;;;;;;;;;;;;;12.45;28.31;101745.16;5029295;28;98300;-82
2021/04/08 12:52:52;;;;;;;;;;;;;;;13.49;27.25;101738.53;5031899;28;100827;-82
2021/04/08 12:55:18;;;;;;;;;;;;;;;13.30;27.05;101733.88;5028224;28;96706;-82
2021/04/08 12:57:43;;;;;;;;;;;;;;;13.45;27.11;101738.69;5024544;28;97064;-82
2021/04/08 13:00:11;;;;;;;;;;;;;;;13.29;27.89;101742.75;5019728;28;101746;-85
2021/04/08 13:02:40;;;;;;;;;;;;;;;13.28;27.94;101746.31;5024325;28;101430;-85
2021/04/08 13:05:08;;;;;;;;;;;;;;;13.47;28.25;101742.16;5018719;28;97335;-85
2021/04/08 13:07:34;;;;;;;;;;;;;;;13.31;29.44;101746.22;5004276;28;96910;-85
2021/04/08 13:10:00;;;;;;;;;;;;;;;13.04;29.56;101738.16;5027256;28;97276;-84
2021/04/08 13:12:28;;;;;;;;;;;;;;;12.96;30.53;101756.06;5024712;28;98509;-84
2021/04/08 13:14:54;;;;;;;;;;;;;;;13.02;30.30;101761.19;5020815;28;98312;-84
2021/04/08 13:17:20;;;;;;;;;;;;;;;12.56;30.70;101755.47;5029137;28;96904;-83